Time;durP1;ratioP1;P1;durP2;ratioP2;P2;SDS_P1;SDS_P2;PMS_P1;PMS_P2;Temp;Humidity;BMP_temperature;BMP_pressure;BME280_temperature;BME280_humidity;BME280_pressure;Samples;Min_cycle;Max_cycle;Signal;HPM_P1;HPM_P2
2022/04/25 00:00:15;;;;;;;50.17;34.13;;;10.20;99.90;;;;;;5032511;28;20108;-74
2022/04/25 00:02:41;;;;;;;47.22;33.78;;;10.20;99.90;;;;;;5031631;28;20041;-74
2022/04/25 00:05:07;;;;;;;45.08;31.77;;;10.30;99.90;;;;;;5032300;28;20446;-73
2022/04/25 00:07:33;;;;;;;46.22;33.53;;;10.30;99.90;;;;;;5032076;28;20451;-73
2022/04/25 00:09:59;;;;;;;48.95;36.40;;;10.40;99.90;;;;;;5032207;28;20040;-73
2022/04/25 00:12:24;;;;;;;43.88;32.00;;;10.50;99.90;;;;;;5031788;28;20021;-74
2022/04/25 00:14:50;;;;;;;42.45;30.75;;;10.50;99.90;;;;;;5030771;28;20037;-75
2022/04/25 00:17:16;;;;;;;47.00;33.03;;;10.60;99.90;;;;;;5031835;28;20031;-75
2022/04/25 00:19:41;;;;;;;42.95;32.45;;;10.60;99.90;;;;;;5031239;28;20033;-74
2022/04/25 00:22:07;;;;;;;44.67;31.98;;;10.60;99.90;;;;;;5031891;28;20033;-74
2022/04/25 00:24:33;;;;;;;44.40;28.77;;;10.60;99.90;;;;;;5031824;28;20036;-73
2022/04/25 00:26:59;;;;;;;42.95;31.08;;;10.60;99.90;;;;;;5063719;28;20033;-74
2022/04/25 00:29:24;;;;;;;41.22;31.25;;;10.60;99.90;;;;;;5063826;28;20037;-74
2022/04/25 00:31:50;;;;;;;37.85;27.67;;;10.60;99.90;;;;;;5031386;28;20151;-74
2022/04/25 00:34:16;;;;;;;40.10;29.02;;;10.60;99.90;;;;;;5062730;28;20116;-75
2022/04/25 00:36:42;;;;;;;42.17;30.27;;;10.70;99.90;;;;;;5030850;28;20065;-75
2022/04/25 00:39:07;;;;;;;40.40;29.58;;;10.70;99.90;;;;;;5031462;28;20545;-73
2022/04/25 00:41:33;;;;;;;40.58;28.63;;;10.80;99.90;;;;;;5028666;28;20820;-74
2022/04/25 00:43:59;;;;;;;32.00;22.23;;;10.80;99.90;;;;;;5031503;28;20036;-74
2022/04/25 00:46:26;;;;;;;27.85;20.02;;;10.90;99.90;;;;;;5031553;28;20491;-74
2022/04/25 00:48:53;;;;;;;24.63;18.48;;;10.90;99.90;;;;;;5031451;28;20029;-73
2022/04/25 00:51:19;;;;;;;25.23;17.88;;;10.90;99.90;;;;;;5031000;28;20025;-74
2022/04/25 00:53:46;;;;;;;21.10;15.35;;;10.90;99.90;;;;;;5031426;28;20487;-74
2022/04/25 00:56:15;;;;;;;17.95;14.23;;;10.90;99.90;;;;;;5031361;28;20022;-73
2022/04/25 00:58:45;;;;;;;17.10;12.73;;;10.90;99.90;;;;;;5031343;28;20080;-74
2022/04/25 01:01:13;;;;;;;17.80;12.75;;;10.90;99.90;;;;;;5031313;28;20113;-74
2022/04/25 01:03:38;;;;;;;20.15;15.40;;;10.80;99.90;;;;;;5063326;28;20582;-73
2022/04/25 01:06:05;;;;;;;17.55;13.90;;;10.80;99.90;;;;;;5031393;28;20069;-73
2022/04/25 01:08:34;;;;;;;20.05;14.18;;;10.70;99.90;;;;;;5029198;28;20061;-73
2022/04/25 01:11:02;;;;;;;17.95;14.82;;;10.80;99.90;;;;;;5029964;28;20041;-75
2022/04/25 01:13:27;;;;;;;20.42;14.57;;;10.80;99.90;;;;;;5031125;28;20017;-74
2022/04/25 01:15:53;;;;;;;16.65;13.98;;;10.80;99.90;;;;;;5030043;28;20026;-72
2022/04/25 01:18:19;;;;;;;19.70;15.00;;;10.90;99.90;;;;;;5029865;28;20394;-74
2022/04/25 01:20:45;;;;;;;17.70;13.73;;;10.90;99.90;;;;;;5031353;28;20593;-74
2022/04/25 01:28:52;;;;;;;19.35;15.38;;;11.00;99.90;;;;;;5031500;28;20040;-74
2022/04/25 01:31:18;;;;;;;19.58;14.73;;;10.90;99.90;;;;;;5031794;28;20111;-74
2022/04/25 01:33:44;;;;;;;19.70;14.55;;;10.90;99.90;;;;;;5031314;28;20025;-74
2022/04/25 01:36:11;;;;;;;19.58;15.20;;;10.90;99.90;;;;;;5031159;28;20017;-73
2022/04/25 01:38:36;;;;;;;21.95;15.63;;;10.90;99.90;;;;;;5031023;28;20018;-74
2022/04/25 01:41:02;;;;;;;20.77;16.90;;;10.90;99.90;;;;;;5028838;28;20048;-72
2022/04/25 01:43:28;;;;;;;18.10;15.38;;;10.90;99.90;;;;;;5032518;28;20079;-73
2022/04/25 01:45:54;;;;;;;18.10;15.57;;;10.90;99.90;;;;;;5034538;28;20044;-74
2022/04/25 01:48:21;;;;;;;20.33;16.60;;;11.00;99.90;;;;;;5034561;28;20022;-73
2022/04/25 01:50:49;;;;;;;18.92;16.52;;;11.00;99.90;;;;;;5034696;28;20394;-72
2022/04/25 01:53:15;;;;;;;21.45;16.90;;;11.00;99.90;;;;;;5034720;28;20429;-73
2022/04/25 01:55:42;;;;;;;20.45;15.57;;;11.10;99.90;;;;;;5034488;28;20149;-72
2022/04/25 01:58:08;;;;;;;18.15;15.25;;;11.10;99.90;;;;;;5033765;28;20018;-74
2022/04/25 02:00:34;;;;;;;19.20;15.02;;;11.10;99.90;;;;;;5034430;28;20033;-74
2022/04/25 02:03:00;;;;;;;21.23;15.82;;;11.10;99.90;;;;;;5034335;28;20021;-74
2022/04/25 02:05:26;;;;;;;19.23;14.73;;;11.10;99.90;;;;;;5034519;28;20340;-73
2022/04/25 02:07:51;;;;;;;17.90;14.52;;;11.00;99.90;;;;;;5034388;28;20032;-73
2022/04/25 02:10:17;;;;;;;19.80;14.90;;;11.00;99.90;;;;;;5066437;28;20021;-73
2022/04/25 02:12:44;;;;;;;23.98;16.80;;;10.90;99.90;;;;;;5033831;28;20021;-72
2022/04/25 02:15:13;;;;;;;19.13;14.68;;;10.90;99.90;;;;;;5034035;28;20505;-73
2022/04/25 02:17:41;;;;;;;16.80;13.18;;;10.80;99.90;;;;;;5034009;28;20099;-74
2022/04/25 02:20:08;;;;;;;19.90;14.05;;;10.80;99.90;;;;;;5034008;28;20036;-73
2022/04/25 02:22:35;;;;;;;20.17;15.63;;;10.70;99.90;;;;;;5034139;28;20036;-73
2022/04/25 02:25:01;;;;;;;21.63;15.55;;;10.60;99.90;;;;;;5034025;28;20061;-74
2022/04/25 02:27:27;;;;;;;20.17;16.17;;;10.50;99.90;;;;;;5034009;28;20340;-73
2022/04/25 02:29:57;;;;;;;20.70;16.10;;;10.50;99.90;;;;;;5033238;28;20024;-73
2022/04/25 02:32:27;;;;;;;17.83;15.05;;;10.50;99.90;;;;;;5032623;28;20128;-73
2022/04/25 02:34:57;;;;;;;18.67;14.73;;;10.50;99.90;;;;;;5033732;28;20026;-73
2022/04/25 02:37:23;;;;;;;20.10;15.00;;;10.50;99.90;;;;;;5033732;28;20021;-73
2022/04/25 02:39:49;;;;;;;17.73;14.95;;;10.50;99.90;;;;;;5032509;28;20081;-73
2022/04/25 02:42:16;;;;;;;17.83;14.80;;;10.60;99.90;;;;;;5032481;28;20037;-73
2022/04/25 02:44:42;;;;;;;20.17;14.77;;;10.80;99.90;;;;;;5033720;28;20124;-72
2022/04/25 02:47:08;;;;;;;16.90;14.00;;;10.90;99.90;;;;;;5032775;28;20053;-72
2022/04/25 02:49:34;;;;;;;20.00;14.40;;;11.00;99.90;;;;;;5033678;28;20451;-73
2022/04/25 02:52:00;;;;;;;17.10;13.13;;;11.10;99.90;;;;;;5033407;28;20056;-73
2022/04/25 02:54:26;;;;;;;22.55;14.23;;;11.10;99.90;;;;;;5065352;28;20483;-72
2022/04/25 02:56:52;;;;;;;20.02;13.85;;;11.10;99.90;;;;;;5033314;28;20059;-73
2022/04/25 02:59:19;;;;;;;17.90;14.43;;;11.20;99.90;;;;;;5033251;28;20036;-73
2022/04/25 03:01:45;;;;;;;16.27;12.65;;;11.20;99.90;;;;;;5033245;28;20048;-74
2022/04/25 03:04:11;;;;;;;19.38;12.30;;;11.20;99.90;;;;;;5031869;28;20029;-72
2022/04/25 03:06:37;;;;;;;15.02;12.18;;;11.20;99.90;;;;;;5032717;28;20112;-72
2022/04/25 03:09:03;;;;;;;16.17;12.82;;;11.20;99.90;;;;;;5030755;28;20022;-73
2022/04/25 03:11:29;;;;;;;15.40;12.88;;;11.20;99.90;;;;;;5033067;28;20038;-73
2022/04/25 03:13:55;;;;;;;15.65;12.80;;;11.20;99.90;;;;;;5032921;28;20487;-73
2022/04/25 03:16:21;;;;;;;16.45;13.27;;;11.20;99.90;;;;;;5033333;28;20029;-72
2022/04/25 03:18:48;;;;;;;16.67;12.93;;;11.30;99.90;;;;;;5033083;28;20029;-73
2022/04/25 03:21:14;;;;;;;15.15;12.60;;;11.30;99.90;;;;;;5032975;28;20123;-74
2022/04/25 03:23:39;;;;;;;11.88;10.15;;;11.30;99.90;;;;;;5031639;28;20048;-73
2022/04/25 03:26:06;;;;;;;17.33;11.27;;;11.40;99.90;;;;;;5031843;28;20525;-73
2022/04/25 03:28:32;;;;;;;14.93;11.30;;;11.30;99.90;;;;;;5032902;28;20025;-73
2022/04/25 03:30:58;;;;;;;11.77;10.45;;;11.30;99.90;;;;;;5032736;28;20033;-72
2022/04/25 03:33:31;;;;;;;16.88;11.00;;;11.30;99.90;;;;;;5032603;28;20056;-73
2022/04/25 03:35:57;;;;;;;17.45;9.20;;;11.20;99.90;;;;;;5032515;28;20036;-73
2022/04/25 03:38:23;;;;;;;12.77;9.55;;;11.10;99.90;;;;;;5064669;28;20379;-75
2022/04/25 03:40:49;;;;;;;12.60;9.10;;;11.00;99.90;;;;;;5031179;28;20041;-73
2022/04/25 03:43:17;;;;;;;12.73;9.68;;;10.90;99.90;;;;;;5032509;28;20033;-73
2022/04/25 03:45:43;;;;;;;12.13;9.82;;;10.90;99.90;;;;;;5032582;28;20374;-74
2022/04/25 03:48:09;;;;;;;9.73;8.73;;;11.00;99.90;;;;;;5031031;28;20103;-74
2022/04/25 03:50:35;;;;;;;14.43;9.38;;;11.10;99.90;;;;;;5032359;28;20033;-74
2022/04/25 03:53:11;;;;;;;13.05;9.40;;;11.30;99.90;;;;;;5032291;28;20022;-73
2022/04/25 03:58:22;;;;;;;10.75;9.18;;;11.70;99.50;;;;;;5012919;28;20556;-75
2022/04/25 04:00:48;;;;;;;11.07;7.80;;;11.90;99.00;;;;;;5012402;28;20491;-74
2022/04/25 04:03:18;;;;;;;11.30;8.52;;;12.10;98.40;;;;;;5012358;28;20475;-73
2022/04/25 04:05:45;;;;;;;11.32;8.75;;;12.30;97.70;;;;;;5011740;28;20026;-74
2022/04/25 04:08:10;;;;;;;11.77;8.85;;;12.40;97.00;;;;;;5012316;28;20041;-73
2022/04/25 04:10:36;;;;;;;11.32;8.48;;;12.40;96.80;;;;;;5012195;28;20037;-73
2022/04/25 04:13:05;;;;;;;10.98;8.57;;;12.50;96.40;;;;;;5019148;28;20434;-75
2022/04/25 04:15:31;;;;;;;10.70;9.50;;;12.70;96.10;;;;;;5032266;28;20029;-74
2022/04/25 04:17:58;;;;;;;11.48;8.57;;;12.80;95.50;;;;;;5032004;28;20034;-76
2022/04/25 04:20:23;;;;;;;9.38;7.07;;;12.80;95.20;;;;;;5031840;28;20052;-76
2022/04/25 04:22:49;;;;;;;9.52;8.23;;;12.90;94.90;;;;;;5031773;28;20487;-74
2022/04/25 04:25:15;;;;;;;10.57;8.70;;;13.00;94.50;;;;;;5031768;28;20538;-75
2022/04/25 04:27:42;;;;;;;8.32;6.97;;;13.20;94.20;;;;;;5031672;28;20026;-75
2022/04/25 04:30:10;;;;;;;10.38;9.18;;;13.30;93.20;;;;;;5031145;28;20022;-75
2022/04/25 04:32:37;;;;;;;14.15;9.10;;;13.00;93.60;;;;;;5030321;28;20038;-74
2022/04/25 04:35:09;;;;;;;13.10;10.40;;;12.90;94.00;;;;;;5031471;28;20479;-74
2022/04/25 04:37:36;;;;;;;9.93;8.77;;;12.90;94.10;;;;;;5031543;28;20026;-74
2022/04/25 04:42:47;;;;;;;11.35;8.68;;;13.10;94.20;;;;;;5030535;28;20450;-73
2022/04/25 04:45:13;;;;;;;13.35;9.93;;;13.40;93.40;;;;;;5030142;28;20029;-74
2022/04/25 04:47:40;;;;;;;10.23;7.40;;;13.50;92.60;;;;;;5030614;28;20033;-73
2022/04/25 04:50:10;;;;;;;10.88;7.78;;;13.60;91.70;;;;;;5031411;28;20030;-73
2022/04/25 04:52:36;;;;;;;12.45;7.40;;;13.40;91.50;;;;;;5031495;28;20029;-74
2022/04/25 04:55:02;;;;;;;10.38;8.35;;;13.30;91.70;;;;;;5031368;28;20099;-75
2022/04/25 04:57:28;;;;;;;11.48;8.90;;;13.00;91.90;;;;;;5031138;28;20053;-74
2022/04/25 04:59:53;;;;;;;9.68;8.65;;;13.30;92.30;;;;;;5029793;28;20034;-73
2022/04/25 05:02:19;;;;;;;9.55;8.50;;;13.70;91.90;;;;;;5031251;28;20052;-75
2022/04/25 05:04:45;;;;;;;11.43;7.95;;;13.90;91.10;;;;;;5030439;28;20514;-73
2022/04/25 05:07:11;;;;;;;9.45;8.13;;;13.70;90.50;;;;;;5030243;28;20566;-74
2022/04/25 05:09:37;;;;;;;9.95;7.75;;;13.40;90.80;;;;;;5031121;28;20053;-76
2022/04/25 05:12:03;;;;;;;9.77;7.25;;;13.20;91.00;;;;;;5031220;28;20038;-74
2022/04/25 05:14:29;;;;;;;7.93;6.72;;;13.10;91.20;;;;;;5031137;28;20466;-74
2022/04/25 05:16:55;;;;;;;13.30;8.32;;;13.00;91.40;;;;;;5030174;28;20116;-74
2022/04/25 05:19:20;;;;;;;14.93;8.10;;;13.00;91.50;;;;;;5034857;28;20033;-74
2022/04/25 05:21:47;;;;;;;9.35;7.60;;;13.10;91.40;;;;;;5034399;28;20049;-75
2022/04/25 05:24:13;;;;;;;9.60;8.35;;;13.30;91.30;;;;;;5035084;28;20025;-74
2022/04/25 05:26:38;;;;;;;12.63;9.45;;;13.50;90.90;;;;;;5034817;28;20634;-71
2022/04/25 05:29:04;;;;;;;11.65;9.60;;;13.70;90.50;;;;;;5034609;28;20041;-73
2022/04/25 05:31:30;;;;;;;13.32;8.75;;;13.70;90.50;;;;;;5033514;28;20087;-75
2022/04/25 05:33:56;;;;;;;12.48;7.93;;;13.80;90.30;;;;;;5034809;28;20463;-74
2022/04/25 05:36:23;;;;;;;8.60;7.13;;;13.80;89.70;;;;;;5034909;28;20479;-74
2022/04/25 05:38:48;;;;;;;10.05;8.05;;;13.70;88.80;;;;;;5034879;28;20026;-74
2022/04/25 05:41:14;;;;;;;11.32;9.57;;;13.60;90.00;;;;;;5034941;28;20057;-74
2022/04/25 05:43:40;;;;;;;10.40;8.55;;;13.70;89.90;;;;;;5035546;28;20025;-75
2022/04/25 05:46:06;;;;;;;10.05;8.50;;;13.70;89.50;;;;;;5036459;28;20033;-77
2022/04/25 05:54:01;;;;;;;13.60;8.63;;;14.10;88.10;;;;;;5034534;28;20039;-74
2022/04/25 05:56:27;;;;;;;11.13;8.40;;;14.40;87.80;;;;;;5032944;28;20108;-74
2022/04/25 05:58:53;;;;;;;16.60;8.80;;;15.10;86.20;;;;;;5034422;28;20694;-73
2022/04/25 06:01:19;;;;;;;10.00;7.20;;;15.90;83.10;;;;;;5033883;28;20044;-75
2022/04/25 06:03:45;;;;;;;10.52;8.60;;;16.50;80.50;;;;;;5034981;28;20025;-76
2022/04/25 06:06:10;;;;;;;10.15;8.10;;;16.80;78.40;;;;;;5034320;28;20036;-74
2022/04/25 06:08:37;;;;;;;15.52;8.90;;;16.30;77.50;;;;;;5032672;28;20051;-74
2022/04/25 06:11:03;;;;;;;11.02;8.25;;;15.90;79.80;;;;;;5034136;28;20025;-74
2022/04/25 06:13:29;;;;;;;13.30;8.10;;;15.60;80.40;;;;;;5032906;28;20025;-76
2022/04/25 06:15:55;;;;;;;11.70;10.13;;;15.50;80.70;;;;;;5065814;28;20041;-74
2022/04/25 06:18:20;;;;;;;10.75;7.88;;;15.50;81.70;;;;;;5033024;28;20033;-74
2022/04/25 06:20:46;;;;;;;11.23;9.00;;;15.90;79.90;;;;;;5033386;28;20109;-73
2022/04/25 06:23:12;;;;;;;10.18;8.32;;;15.90;78.80;;;;;;5034114;28;20025;-74
2022/04/25 06:25:38;;;;;;;14.20;8.75;;;15.70;79.30;;;;;;5020487;28;20121;-73
2022/04/25 06:28:04;;;;;;;10.80;8.63;;;15.40;79.70;;;;;;5012963;28;20026;-76
2022/04/25 06:30:30;;;;;;;10.13;8.98;;;15.10;80.30;;;;;;5025425;28;20360;-74
2022/04/25 06:32:57;;;;;;;13.35;8.93;;;15.20;81.50;;;;;;5022520;28;20034;-74
2022/04/25 06:35:23;;;;;;;15.63;9.15;;;15.70;80.60;;;;;;5013991;28;20455;-74
2022/04/25 06:37:50;;;;;;;9.63;8.45;;;16.70;78.50;;;;;;5033215;28;20044;-74
2022/04/25 06:40:17;;;;;;;8.63;7.73;;;17.90;74.70;;;;;;5033796;28;20049;-74
2022/04/25 06:42:43;;;;;;;11.32;7.53;;;18.70;71.70;;;;;;5013958;28;20121;-73
2022/04/25 06:45:09;;;;;;;9.50;7.20;;;19.20;68.60;;;;;;5013408;28;20022;-74
2022/04/25 06:47:35;;;;;;;9.82;7.07;;;19.20;66.70;;;;;;5013293;28;20025;-74
2022/04/25 06:50:01;;;;;;;8.80;6.97;;;19.70;65.30;;;;;;5013286;28;20030;-74
2022/04/25 06:52:27;;;;;;;8.40;7.10;;;19.70;64.10;;;;;;5026883;28;20026;-78
2022/04/25 06:54:53;;;;;;;9.73;7.15;;;19.70;62.70;;;;;;5033061;28;20044;-76
2022/04/25 06:57:19;;;;;;;10.27;8.15;;;19.50;63.50;;;;;;5033247;28;20021;-78
2022/04/25 06:59:45;;;;;;;12.02;7.68;;;19.20;64.70;;;;;;5033334;28;20025;-76
2022/04/25 07:02:11;;;;;;;11.25;7.47;;;19.60;63.80;;;;;;5032982;28;20033;-76
2022/04/25 07:04:37;;;;;;;15.47;9.00;;;21.10;62.00;;;;;;5033414;28;20022;-78
2022/04/25 07:07:04;;;;;;;14.15;6.65;;;23.10;57.80;;;;;;5032690;28;20026;-79
2022/04/25 07:09:29;;;;;;;16.50;8.37;;;24.70;53.10;;;;;;5033353;28;20375;-77
2022/04/25 07:11:55;;;;;;;8.20;7.40;;;26.00;50.10;;;;;;5033215;28;20044;-77
2022/04/25 07:14:21;;;;;;;10.23;7.20;;;27.10;46.40;;;;;;5032907;28;20038;-78
2022/04/25 07:16:48;;;;;;;11.07;6.60;;;26.20;44.50;;;;;;5033039;28;20021;-77
2022/04/25 07:19:15;;;;;;;7.68;6.68;;;25.90;45.50;;;;;;5033180;28;20104;-81
2022/04/25 07:29:54;;;;;;;8.05;6.75;;;28.60;39.70;;;;;;5033520;28;20178;-77
2022/04/25 07:32:20;;;;;;;12.55;7.38;;;27.60;40.90;;;;;;5033162;28;20520;-77
2022/04/25 07:34:47;;;;;;;6.57;5.95;;;27.00;42.30;;;;;;5032617;28;20475;-78
2022/04/25 07:37:15;;;;;;;6.93;6.07;;;27.20;41.50;;;;;;5032928;28;20032;-78
2022/04/25 07:39:42;;;;;;;6.93;6.22;;;25.90;42.30;;;;;;5031480;28;20034;-79
2022/04/25 07:42:08;;;;;;;8.82;6.30;;;25.40;43.20;;;;;;5031588;28;20041;-78
2022/04/25 07:44:34;;;;;;;9.07;6.63;;;25.20;43.70;;;;;;5032567;28;20021;-78
2022/04/25 07:47:00;;;;;;;9.70;6.45;;;25.90;42.80;;;;;;5032300;28;20026;-78
2022/04/25 07:49:27;;;;;;;9.60;6.68;;;26.50;42.70;;;;;;5032348;28;20017;-78
2022/04/25 07:51:55;;;;;;;8.20;7.03;;;27.70;41.60;;;;;;5032211;28;20487;-81
2022/04/25 07:54:22;;;;;;;9.20;6.30;;;28.80;39.40;;;;;;5031083;28;20032;-78
2022/04/25 07:56:48;;;;;;;8.35;6.13;;;29.10;38.80;;;;;;5031302;28;20036;-80
2022/04/25 07:59:15;;;;;;;9.43;6.22;;;29.70;38.00;;;;;;5032262;28;20037;-78
2022/04/25 08:01:41;;;;;;;7.80;6.72;;;28.90;37.40;;;;;;5032158;28;20112;-78
2022/04/25 08:04:08;;;;;;;8.57;6.50;;;27.50;39.00;;;;;;5032241;28;20029;-78
2022/04/25 08:06:33;;;;;;;8.88;6.35;;;26.60;41.00;;;;;;5032291;28;20393;-79
2022/04/25 08:09:02;;;;;;;9.05;6.47;;;27.30;40.30;;;;;;5029778;28;20061;-79
2022/04/25 08:11:27;;;;;;;10.57;5.70;;;28.20;39.00;;;;;;5032168;28;20466;-78
2022/04/25 08:19:21;;;;;;;14.00;6.30;;;30.40;36.70;;;;;;5032083;28;20111;-80
2022/04/25 08:21:47;;;;;;;12.17;6.53;;;31.20;36.00;;;;;;5031721;28;20029;-79
2022/04/25 08:24:14;;;;;;;8.87;5.80;;;31.60;35.50;;;;;;5029654;28;20517;-79
2022/04/25 08:26:40;;;;;;;10.15;6.82;;;31.70;35.00;;;;;;5031898;28;20399;-77
2022/04/25 08:29:06;;;;;;;6.38;5.70;;;32.10;34.50;;;;;;5031737;28;20029;-78
2022/04/25 08:31:33;;;;;;;7.73;5.53;;;31.70;34.20;;;;;;5031740;28;20483;-79
2022/04/25 08:34:00;;;;;;;6.13;5.53;;;30.80;34.20;;;;;;5031682;28;20021;-76
2022/04/25 08:36:25;;;;;;;7.90;5.57;;;29.30;35.40;;;;;;5031678;28;20025;-77
2022/04/25 08:38:51;;;;;;;8.13;6.00;;;28.60;36.40;;;;;;5030859;28;20490;-78
2022/04/25 08:41:23;;;;;;;8.03;5.17;;;28.30;36.80;;;;;;5031311;28;20049;-79
2022/04/25 08:43:52;;;;;;;8.15;5.85;;;28.80;36.40;;;;;;5031386;28;20040;-78
2022/04/25 08:46:21;;;;;;;8.32;5.40;;;29.90;35.50;;;;;;5031399;28;20028;-78
2022/04/25 08:48:48;;;;;;;8.18;6.43;;;29.70;35.30;;;;;;5031392;28;20382;-79
2022/04/25 08:51:14;;;;;;;;;;;28.70;36.10;;;;;;5031825;28;20402;-81
2022/04/25 08:53:40;;;;;;;;;;;28.10;38.10;;;;;;5031824;28;20314;-79
2022/04/25 08:56:07;;;;;;;7.85;6.13;;;28.00;37.50;;;;;;5030672;28;19909;-78
2022/04/25 08:58:36;;;;;;;9.30;5.95;;;27.90;37.60;;;;;;5030357;28;20529;-79
2022/04/25 09:01:02;;;;;;;6.30;5.63;;;28.50;37.30;;;;;;5031330;28;20026;-78
2022/04/25 09:03:28;;;;;;;7.85;5.90;;;27.60;37.00;;;;;;5030232;28;20467;-79
2022/04/25 09:05:55;;;;;;;6.88;5.57;;;26.30;38.70;;;;;;5031493;28;20111;-79
2022/04/25 09:08:21;;;;;;;10.70;6.28;;;25.30;39.20;;;;;;5031458;28;20060;-79
2022/04/25 09:10:48;;;;;;;7.18;5.65;;;24.00;41.20;;;;;;5029961;28;20037;-81
2022/04/25 09:13:14;;;;;;;7.70;6.80;;;23.70;42.20;;;;;;5030660;28;20445;-79
2022/04/25 09:15:40;;;;;;;10.65;5.75;;;23.80;43.10;;;;;;5029981;28;20083;-78
2022/04/25 09:18:06;;;;;;;7.13;6.38;;;25.00;41.40;;;;;;5029937;28;20108;-79
2022/04/25 09:20:33;;;;;;;7.32;4.95;;;25.60;41.10;;;;;;5031145;28;20064;-78
2022/04/25 09:22:59;;;;;;;12.52;6.53;;;27.10;39.30;;;;;;5030905;28;20109;-78
2022/04/25 09:25:26;;;;;;;6.93;5.67;;;28.50;37.20;;;;;;5030989;28;20029;-80
2022/04/25 09:28:11;;;;;;;6.80;4.78;;;28.00;36.90;;;;;;5030740;28;20014;-78
2022/04/25 09:30:37;;;;;;;6.95;5.32;;;26.40;37.60;;;;;;5029153;28;20037;-77
2022/04/25 09:33:03;;;;;;;10.82;5.72;;;25.40;38.90;;;;;;5031194;28;20364;-79
2022/04/25 09:35:35;;;;;;;9.52;5.95;;;25.50;39.60;;;;;;5031275;28;20029;-80
2022/04/25 09:38:03;;;;;;;7.40;5.95;;;25.90;38.90;;;;;;5031239;28;20036;-79
2022/04/25 09:40:33;;;;;;;7.32;6.25;;;26.10;39.10;;;;;;5030746;28;20045;-78
2022/04/25 09:43:14;;;;;;;6.80;5.10;;;25.80;39.20;;;;;;5030954;28;20028;-78
2022/04/25 09:45:44;;;;;;;6.15;5.55;;;26.10;39.20;;;;;;5030963;28;20030;-77
2022/04/25 09:48:23;;;;;;;7.22;5.50;;;26.50;39.10;;;;;;5030806;28;20034;-77
2022/04/25 09:51:05;;;;;;;6.18;5.57;;;26.40;38.20;;;;;;5030944;28;20076;-78
2022/04/25 09:53:55;;;;;;;6.07;5.10;;;25.30;39.00;;;;;;5031115;28;20026;-77
2022/04/25 09:56:23;;;;;;;8.95;5.10;;;24.40;40.20;;;;;;5031231;28;20021;-79
2022/04/25 09:59:07;;;;;;;5.82;5.28;;;24.40;40.10;;;;;;5031190;28;20017;-79
2022/04/25 10:01:43;;;;;;;6.88;5.53;;;23.80;41.50;;;;;;5031312;28;20030;-79
2022/04/25 10:04:31;;;;;;;5.82;5.25;;;23.60;41.50;;;;;;5030032;28;20041;-77
2022/04/25 10:06:59;;;;;;;8.32;5.32;;;23.20;41.90;;;;;;5034518;28;20068;-78
2022/04/25 10:09:27;;;;;;;6.35;5.40;;;23.60;42.80;;;;;;5034452;28;20045;-79
2022/04/25 10:11:55;;;;;;;5.70;5.20;;;24.80;40.20;;;;;;5034299;28;20033;-79
2022/04/25 10:14:21;;;;;;;8.38;6.22;;;25.60;38.80;;;;;;5034254;28;20018;-79
2022/04/25 10:16:47;;;;;;;6.20;4.87;;;25.60;38.40;;;;;;5034314;28;20479;-80
2022/04/25 10:19:14;;;;;;;8.20;5.67;;;26.20;37.70;;;;;;5033174;28;20030;-78
2022/04/25 10:21:40;;;;;;;8.77;5.40;;;26.80;37.70;;;;;;5034336;28;20270;-78
2022/04/25 10:24:07;;;;;;;5.95;5.22;;;27.00;36.80;;;;;;5035559;28;20081;-79
2022/04/25 10:26:33;;;;;;;8.05;5.40;;;26.00;37.30;;;;;;5038263;28;20113;-78
2022/04/25 10:29:10;;;;;;;9.27;6.15;;;25.00;38.50;;;;;;5034877;28;20101;-77
2022/04/25 10:31:41;;;;;;;7.32;6.28;;;23.20;41.10;;;;;;5034164;28;20125;-78
2022/04/25 10:34:07;;;;;;;8.48;6.18;;;21.60;43.80;;;;;;5033515;28;20022;-79
2022/04/25 10:36:39;;;;;;;7.00;6.35;;;20.70;45.60;;;;;;5034066;28;20104;-77
2022/04/25 10:39:17;;;;;;;7.30;5.82;;;20.40;47.10;;;;;;5035379;28;20026;-78
2022/04/25 10:44:37;;;;;;;8.98;5.85;;;20.20;47.50;;;;;;5033687;28;20053;-79
2022/04/25 10:47:06;;;;;;;8.13;5.70;;;19.80;47.30;;;;;;5033624;28;20026;-78
2022/04/25 10:49:35;;;;;;;6.88;6.18;;;19.40;48.30;;;;;;5033674;28;20037;-78
2022/04/25 10:52:03;;;;;;;6.03;5.43;;;19.10;49.20;;;;;;5032819;28;20052;-78
2022/04/25 10:54:48;;;;;;;8.40;5.50;;;19.00;48.30;;;;;;5033754;28;20036;-77
2022/04/25 10:57:18;;;;;;;7.45;6.30;;;19.00;48.30;;;;;;5032412;28;20410;-78
2022/04/25 10:59:44;;;;;;;6.40;5.75;;;19.10;48.60;;;;;;5065554;28;20392;-77
2022/04/25 11:02:27;;;;;;;6.30;5.45;;;19.10;48.10;;;;;;5033440;28;20108;-79
2022/04/25 11:05:11;;;;;;;7.60;6.03;;;19.10;47.40;;;;;;5033440;28;20029;-77
2022/04/25 11:07:41;;;;;;;7.85;5.05;;;19.10;48.10;;;;;;5032471;28;20079;-79
2022/04/25 11:10:11;;;;;;;5.97;5.22;;;19.30;47.70;;;;;;5033093;28;20546;-79
2022/04/25 11:12:56;;;;;;;6.07;5.47;;;19.40;47.30;;;;;;5033375;28;20029;-79
2022/04/25 11:15:49;;;;;;;5.97;5.38;;;19.30;48.10;;;;;;5033199;28;20029;-78
2022/04/25 11:18:43;;;;;;;6.15;5.55;;;19.10;48.60;;;;;;5033144;28;20026;-79
2022/04/25 11:21:13;;;;;;;10.25;5.50;;;19.10;48.80;;;;;;5032837;28;20491;-79
2022/04/25 11:23:51;;;;;;;8.07;5.88;;;19.30;48.40;;;;;;5033138;28;20331;-80
2022/04/25 11:26:23;;;;;;;6.20;5.32;;;19.60;48.10;;;;;;5032097;28;20026;-79
2022/04/25 11:29:07;;;;;;;7.15;5.68;;;19.80;46.70;;;;;;5033492;28;20560;-80
2022/04/25 11:31:35;;;;;;;8.32;5.40;;;19.90;46.20;;;;;;5033131;28;20446;-80
2022/04/25 11:34:01;;;;;;;;;;;19.60;45.80;;;;;;5065359;28;20398;-79
2022/04/25 11:36:29;;;;;;;8.88;5.72;;;19.50;46.60;;;;;;5032779;28;19912;-79
2022/04/25 11:41:41;;;;;;;7.55;5.22;;;19.30;46.80;;;;;;5031764;28;20125;-79
2022/04/25 11:44:08;;;;;;;5.82;5.22;;;19.30;46.40;;;;;;5032788;28;20163;-80
2022/04/25 11:46:36;;;;;;;7.18;5.18;;;19.20;46.40;;;;;;5031336;28;20071;-78
2022/04/25 11:49:04;;;;;;;7.72;4.95;;;19.30;45.90;;;;;;5031337;28;20434;-79
2022/04/25 11:51:38;;;;;;;8.27;5.30;;;19.40;45.80;;;;;;5032663;28;20048;-78
2022/04/25 11:54:06;;;;;;;8.82;5.53;;;19.40;45.40;;;;;;5032513;28;20661;-79
2022/04/25 11:56:34;;;;;;;7.55;6.60;;;19.30;46.70;;;;;;5032391;28;20104;-78
2022/04/25 11:59:05;;;;;;;7.82;5.95;;;19.00;47.90;;;;;;5030223;28;20037;-79
2022/04/25 12:01:50;;;;;;;9.73;6.10;;;18.80;48.90;;;;;;5032293;28;20029;-78
2022/04/25 12:04:27;;;;;;;7.53;5.97;;;18.90;48.80;;;;;;5032153;28;20029;-79
2022/04/25 12:06:56;;;;;;;;;;;18.90;49.30;;;;;;5032775;28;20068;-78
2022/04/25 12:15:40;;;;;;;5.07;4.40;;;19.20;48.30;;;;;;5031037;28;20032;-77
2022/04/25 12:18:20;;;;;;;7.43;5.68;;;19.20;47.50;;;;;;5032074;28;20395;-78
2022/04/25 12:20:49;;;;;;;7.57;5.45;;;19.10;48.10;;;;;;5031851;28;20032;-78
2022/04/25 12:23:25;;;;;;;8.90;5.78;;;19.10;48.70;;;;;;5031781;28;20022;-78
2022/04/25 12:25:52;;;;;;;9.20;5.70;;;19.20;48.40;;;;;;5027175;28;20029;-78
2022/04/25 12:28:22;;;;;;;9.65;6.30;;;19.40;47.90;;;;;;5010623;28;20451;-78
2022/04/25 12:31:15;;;;;;;8.00;5.53;;;19.20;48.00;;;;;;5025018;28;20111;-78
2022/04/25 12:33:43;;;;;;;6.55;5.43;;;19.00;48.40;;;;;;5032008;28;20025;-79
2022/04/25 12:36:16;;;;;;;5.43;4.90;;;19.00;47.90;;;;;;5032197;28;20069;-79
2022/04/25 12:38:57;;;;;;;6.22;5.10;;;18.90;47.60;;;;;;5034332;28;20049;-79
2022/04/25 12:41:35;;;;;;;6.30;4.75;;;18.90;47.50;;;;;;5032907;28;20077;-77
2022/04/25 12:44:17;;;;;;;5.50;5.00;;;18.70;47.60;;;;;;5032419;28;20045;-77
2022/04/25 12:46:59;;;;;;;5.97;4.53;;;18.50;47.90;;;;;;5032094;28;20109;-79
2022/04/25 12:49:36;;;;;;;5.32;4.68;;;18.40;48.60;;;;;;5031731;28;20041;-78
2022/04/25 12:52:05;;;;;;;8.17;4.87;;;18.30;48.30;;;;;;5031857;28;20048;-79
2022/04/25 12:54:37;;;;;;;8.23;4.90;;;18.30;48.80;;;;;;5030565;28;20267;-78
2022/04/25 12:57:16;;;;;;;6.63;4.18;;;18.20;49.40;;;;;;5031390;28;20025;-79
2022/04/25 13:00:01;;;;;;;9.43;4.60;;;18.20;49.40;;;;;;5030906;28;20021;-79
2022/04/25 13:02:37;;;;;;;6.68;5.05;;;18.00;49.80;;;;;;5031615;28;20029;-80
2022/04/25 13:05:07;;;;;;;6.32;5.53;;;17.90;51.10;;;;;;5031664;28;20049;-80
2022/04/25 13:07:35;;;;;;;8.48;5.15;;;17.70;54.00;;;;;;5031737;28;20025;-79
2022/04/25 13:10:03;;;;;;;7.30;5.43;;;17.30;55.50;;;;;;5031259;28;20025;-76
2022/04/25 13:12:37;;;;;;;6.28;5.65;;;17.10;56.20;;;;;;5032018;28;20421;-79
2022/04/25 13:15:14;;;;;;;6.13;5.18;;;17.00;57.00;;;;;;5030424;28;20120;-78
2022/04/25 13:17:41;;;;;;;5.97;5.35;;;16.80;58.00;;;;;;5031261;28;20482;-80
2022/04/25 13:20:15;;;;;;;7.53;4.97;;;16.50;59.00;;;;;;5031272;28;20087;-80
2022/04/25 13:22:44;;;;;;;7.35;5.80;;;16.30;60.30;;;;;;5031570;28;20028;-80
2022/04/25 13:25:12;;;;;;;9.98;6.00;;;16.10;61.60;;;;;;5030550;28;20116;-79
2022/04/25 13:27:38;;;;;;;8.10;6.80;;;16.10;62.50;;;;;;5031284;28;20120;-81